Eems Servant — PBTI — position and weather

sailwx.info

Track history (hours):
 
Tides and Currents Weather Stations Pressure Air Temp Water Temp Dewpoint Dewpoint Depression Visibility Wind Speed Wind Dir Waves Ship Positions

Eems Servant

Last reported at 2015-Mar-27 01:31 UTC. Time now 2015-Mar-27 01:55 UTC.
Position N 53°24' E 014°37'.

Length 87 m; draft 3.1 m.

Type: Cargo ship. MMSI: 246236000.

Date/timePositionNaut miles runAvg speedWind from/ knotsBaromVisibWave heightAir tempDewpointWater temp
2015-Mar-27 01:31N 53°24' E 014°37'0 0.0
2015-Mar-27 00:33N 53°24' E 014°37'0 0.0
2015-Mar-26 23:33N 53°24' E 014°37'0 0.0
2015-Mar-26 22:33N 53°24' E 014°37'0 0.0
2015-Mar-26 21:33N 53°24' E 014°37'0 0.0
2015-Mar-26 20:33N 53°24' E 014°37'0 0.0
2015-Mar-26 19:33N 53°24' E 014°37'0 0.0
2015-Mar-26 18:33N 53°24' E 014°37'0 0.0
2015-Mar-26 17:33N 53°24' E 014°37'0 0.0
2015-Mar-26 16:34N 53°24' E 014°37'0 0.0
2015-Mar-26 15:33N 53°24' E 014°37'0 0.0
2015-Mar-26 14:33N 53°24' E 014°37'0 0.0
2015-Mar-26 13:33N 53°24' E 014°37'0 0.0
2015-Mar-26 12:33N 53°24' E 014°37'6 6.0
2015-Mar-26 11:33N 53°30' E 014°38'9 8.9
2015-Mar-26 10:33N 53°39' E 014°33'10 9.9
2015-Mar-26 09:33N 53°47' E 014°23'8 8.4
2015-Mar-26 08:33N 53°54' E 014°15'7 7.3
2015-Mar-26 07:33N 54°01' E 014°15'10 9.7
2015-Mar-26 06:32N 54°11' E 014°12'9 9.1
2015-Mar-26 05:33N 54°18' E 014°02'9 9.3
2015-Mar-26 04:33N 54°25' E 013°52'9 8.9
2015-Mar-26 03:33N 54°33' E 013°45'8 8.4
2015-Mar-26 02:33N 54°40' E 013°38'7 7.1
2015-Mar-26 01:33N 54°45' E 013°29'34 5.7
2015-Mar-25 19:33N 54°39' E 012°31'11 7.9
2015-Mar-25 18:09N 54°32' E 012°17'5 9.0
2015-Mar-25 17:33N 54°27' E 012°13'8 8.4
2015-Mar-25 16:33N 54°24' E 011°60'9 8.7
2015-Mar-25 15:33N 54°20' E 011°47'9 9.3
2015-Mar-25 14:33N 54°15' E 011°33'9 9.4
2015-Mar-25 13:33N 54°06' E 011°27'9 8.8
2015-Mar-25 12:33N 53°58' E 011°23'4 4.5
2015-Mar-25 11:33N 53°54' E 011°28'0 0.0
2015-Mar-25 10:33N 53°54' E 011°28'0 0.0
2015-Mar-25 09:33N 53°54' E 011°28'0 0.0
2015-Mar-25 08:33N 53°54' E 011°28'0 0.0
2015-Mar-25 07:33N 53°54' E 011°28'0 0.0
2015-Mar-25 06:33N 53°54' E 011°28'0 0.0
2015-Mar-25 05:33N 53°54' E 011°28'0 0.0
2015-Mar-25 04:33N 53°54' E 011°28'0 0.0
2015-Mar-25 03:33N 53°54' E 011°28'0 0.0
2015-Mar-25 02:33N 53°54' E 011°28'0 0.0
2015-Mar-25 01:33N 53°54' E 011°28'0 0.0
2015-Mar-25 00:33N 53°54' E 011°28'0 0.0
2015-Mar-24 23:33N 53°54' E 011°28'0 0.0
2015-Mar-24 22:33N 53°54' E 011°28'0 0.0
2015-Mar-24 21:33N 53°54' E 011°28'0 0.0
2015-Mar-24 20:33N 53°54' E 011°28'0 0.0
2015-Mar-24 19:33N 53°54' E 011°28'0 0.0
2015-Mar-24 18:33N 53°54' E 011°28'0 0.0
2015-Mar-24 17:33N 53°54' E 011°28'0 0.0
2015-Mar-24 16:33N 53°54' E 011°28'0 0.0
2015-Mar-24 15:33N 53°54' E 011°28'1 1.2
2015-Mar-24 14:33N 53°55' E 011°26'7 7.1
2015-Mar-24 13:33N 54°02' E 011°24'11 7.6
2015-Mar-24 12:05N 54°13' E 011°28'4 8.1
2015-Mar-24 11:33N 54°16' E 011°32'9 9.0
2015-Mar-24 10:33N 54°21' E 011°45'9 9.0
2015-Mar-24 09:33N 54°26' E 011°58'8 7.1
2015-Mar-24 08:23N 54°29' E 012°11'8 8.2
2015-Mar-24 07:27N 54°36' E 012°15'9 8.2
2015-Mar-24 06:23N 54°41' E 012°28'24 8.1
2015-Mar-24 03:29N 54°46' E 013°07'8 9.0
2015-Mar-24 02:33N 54°46' E 013°22'9 9.0
2015-Mar-24 01:33N 54°46' E 013°37'9 8.9
2015-Mar-24 00:32N 54°43' E 013°52'10 9.0
2015-Mar-23 23:27N 54°40' E 014°09'147 8.6
2015-Mar-23 06:27N 54°56' E 018°22'8 9.0
2015-Mar-23 05:33N 54°53' E 018°35'9 8.9
2015-Mar-23 04:33N 54°51' E 018°50'9 8.9
2015-Mar-23 03:33N 54°48' E 019°05'9 8.7
2015-Mar-23 02:32N 54°46' E 019°19'11 0.5
2015-Mar-22 02:13N 54°42' E 019°38'6 8.2
2015-Mar-22 01:31N 54°44' E 019°29'16 8.2
2015-Mar-21 23:32N 54°57' E 019°12'6 5.9
2015-Mar-21 22:29N 55°01' E 019°04'12 6.0
2015-Mar-21 20:33N 54°59' E 018°44'7 5.8
2015-Mar-21 19:24N 54°58' E 018°33'140 8.7
2015-Mar-21 03:25N 54°11' E 014°46'910.2
2015-Mar-21 02:33N 54°07' E 014°33'1010.2
2015-Mar-21 01:33N 54°01' E 014°19'8 8.0
2015-Mar-21 00:33N 53°53' E 014°15'8 8.3
2015-Mar-20 23:33N 53°47' E 014°23'1010.3
2015-Mar-20 22:33N 53°38' E 014°34'1 0.0
2015-Mar-20 09:33N 53°38' E 014°34'1010.0
2015-Mar-20 08:33N 53°46' E 014°24'9 8.9
2015-Mar-20 07:34N 53°53' E 014°16'7 7.2
2015-Mar-20 06:34N 54°00' E 014°15'7 6.8
2015-Mar-20 05:34N 54°07' E 014°13'71 6.2
2015-Mar-19 18:15N 54°37' E 012°23'5 7.7
2015-Mar-19 17:33N 54°33' E 012°17'8 8.3
2015-Mar-19 16:34N 54°26' E 012°11'9 8.5
2015-Mar-19 15:33N 54°25' E 011°56'9 8.7
2015-Mar-19 14:33N 54°26' E 011°42'9 8.6
2015-Mar-19 13:33N 54°30' E 011°28'8 7.8
2015-Mar-19 12:34N 54°33' E 011°16'8 7.6
2015-Mar-19 11:33N 54°35' E 011°03'14 9.1
2015-Mar-19 10:04N 54°34' E 010°40'5 9.1
2015-Mar-19 09:33N 54°33' E 010°32'9 8.9
2015-Mar-19 08:33N 54°29' E 010°18'9 9.0
2015-Mar-19 07:33N 54°22' E 010°09'3 2.7
2015-Mar-19 06:33N 54°22' E 010°05'7 7.3
2015-Mar-19 05:33N 54°22' E 009°52'23 7.6
2015-Mar-19 02:29N 54°08' E 009°20'8 8.2
2015-Mar-19 01:33N 54°00' E 009°18'8 8.1
2015-Mar-19 00:34N 53°54' E 009°09'3 3.0
2015-Mar-18 23:33N 53°53' E 009°14'7 6.9
2015-Mar-18 22:33N 53°48' E 009°23'7 6.7
2015-Mar-18 21:32N 53°42' E 009°29'8 7.7
2015-Mar-18 20:33N 53°36' E 009°36'1110.8
2015-Mar-18 19:34N 53°33' E 009°53'5 5.3
2015-Mar-18 18:34N 53°28' E 009°58'0 0.0
2015-Mar-18 17:28N 53°28' E 009°58'0 0.0
2015-Mar-18 16:28N 53°28' E 009°58'0 0.0
2015-Mar-18 15:28N 53°28' E 009°58'0 0.0
2015-Mar-18 14:31N 53°28' E 009°58'0 0.0
2015-Mar-18 13:31N 53°28' E 009°58'0 0.0
2015-Mar-18 12:31N 53°28' E 009°58'0 0.0
2015-Mar-18 11:33N 53°28' E 009°58'4 4.3
2015-Mar-18 10:33N 53°32' E 009°56'1411.8
2015-Mar-18 09:24N 53°37' E 009°34'1011.9
2015-Mar-18 08:33N 53°45' E 009°24'1110.8
2015-Mar-18 07:33N 53°53' E 009°12'10 9.7
2015-Mar-18 06:33N 53°51' E 008°55'8 7.7
2015-Mar-18 05:33N 53°53' E 008°43'10 7.5
2015-Mar-18 04:16N 53°58' E 008°30'5 7.1
2015-Mar-18 03:32N 53°59' E 008°21'8 7.6
2015-Mar-18 02:32N 54°05' E 008°12'8 8.4
2015-Mar-18 01:33N 54°12' E 008°04'8 8.4
2015-Mar-18 00:33N 54°19' E 007°58'9 8.6
2015-Mar-17 23:33N 54°27' E 007°54'8 8.5
2015-Mar-17 22:33N 54°36' E 007°50'20 8.9
2015-Mar-17 20:16N 54°55' E 007°41'9 9.8
2015-Mar-17 19:19N 55°04' E 007°38'7 9.6
2015-Mar-17 18:32N 55°12' E 007°35'1010.0
2015-Mar-17 17:33N 55°21' E 007°31'11 9.6
2015-Mar-17 16:27N 55°31' E 007°26'52 8.7
2015-Mar-17 10:32N 56°22' E 007°39'9 9.0
2015-Mar-17 09:33N 56°31' E 007°44'9 9.3
2015-Mar-17 08:33N 56°40' E 007°50'9 9.4
2015-Mar-17 07:33N 56°48' E 007°56'9 9.3
2015-Mar-17 06:32N 56°57' E 008°02'  
Track history (hours):
 
Tides and Currents Weather Stations Pressure Air Temp Water Temp Dewpoint Dewpoint Depression Visibility Wind Speed Wind Dir Waves Ship Positions

Eems Servant

Last reported at 2015-Mar-27 01:31 UTC. Time now 2015-Mar-27 01:55 UTC.
Position N 53°24' E 014°37'.

Length 87 m; draft 3.1 m.

Type: Cargo ship. MMSI: 246236000.

Date/timePositionNaut miles runAvg speedWind from/ knotsBaromVisibWave heightAir tempDewpointWater temp
2015-Mar-27 01:31N 53°24' E 014°37'0 0.0
2015-Mar-27 00:33N 53°24' E 014°37'0 0.0
2015-Mar-26 23:33N 53°24' E 014°37'0 0.0
2015-Mar-26 22:33N 53°24' E 014°37'0 0.0
2015-Mar-26 21:33N 53°24' E 014°37'0 0.0
2015-Mar-26 20:33N 53°24' E 014°37'0 0.0
2015-Mar-26 19:33N 53°24' E 014°37'0 0.0
2015-Mar-26 18:33N 53°24' E 014°37'0 0.0
2015-Mar-26 17:33N 53°24' E 014°37'0 0.0
2015-Mar-26 16:34N 53°24' E 014°37'0 0.0
2015-Mar-26 15:33N 53°24' E 014°37'0 0.0
2015-Mar-26 14:33N 53°24' E 014°37'0 0.0
2015-Mar-26 13:33N 53°24' E 014°37'0 0.0
2015-Mar-26 12:33N 53°24' E 014°37'6 6.0
2015-Mar-26 11:33N 53°30' E 014°38'9 8.9
2015-Mar-26 10:33N 53°39' E 014°33'10 9.9
2015-Mar-26 09:33N 53°47' E 014°23'8 8.4
2015-Mar-26 08:33N 53°54' E 014°15'7 7.3
2015-Mar-26 07:33N 54°01' E 014°15'10 9.7
2015-Mar-26 06:32N 54°11' E 014°12'9 9.1
2015-Mar-26 05:33N 54°18' E 014°02'9 9.3
2015-Mar-26 04:33N 54°25' E 013°52'9 8.9
2015-Mar-26 03:33N 54°33' E 013°45'8 8.4
2015-Mar-26 02:33N 54°40' E 013°38'7 7.1
2015-Mar-26 01:33N 54°45' E 013°29'34 5.7
2015-Mar-25 19:33N 54°39' E 012°31'11 7.9
2015-Mar-25 18:09N 54°32' E 012°17'5 9.0
2015-Mar-25 17:33N 54°27' E 012°13'8 8.4
2015-Mar-25 16:33N 54°24' E 011°60'9 8.7
2015-Mar-25 15:33N 54°20' E 011°47'9 9.3
2015-Mar-25 14:33N 54°15' E 011°33'9 9.4
2015-Mar-25 13:33N 54°06' E 011°27'9 8.8
2015-Mar-25 12:33N 53°58' E 011°23'4 4.5
2015-Mar-25 11:33N 53°54' E 011°28'0 0.0
2015-Mar-25 10:33N 53°54' E 011°28'0 0.0
2015-Mar-25 09:33N 53°54' E 011°28'0 0.0
2015-Mar-25 08:33N 53°54' E 011°28'0 0.0
2015-Mar-25 07:33N 53°54' E 011°28'0 0.0
2015-Mar-25 06:33N 53°54' E 011°28'0 0.0
2015-Mar-25 05:33N 53°54' E 011°28'0 0.0
2015-Mar-25 04:33N 53°54' E 011°28'0 0.0
2015-Mar-25 03:33N 53°54' E 011°28'0 0.0
2015-Mar-25 02:33N 53°54' E 011°28'0 0.0
2015-Mar-25 01:33N 53°54' E 011°28'0 0.0
2015-Mar-25 00:33N 53°54' E 011°28'0 0.0
2015-Mar-24 23:33N 53°54' E 011°28'0 0.0
2015-Mar-24 22:33N 53°54' E 011°28'0 0.0
2015-Mar-24 21:33N 53°54' E 011°28'0 0.0
2015-Mar-24 20:33N 53°54' E 011°28'0 0.0
2015-Mar-24 19:33N 53°54' E 011°28'0 0.0
2015-Mar-24 18:33N 53°54' E 011°28'0 0.0
2015-Mar-24 17:33N 53°54' E 011°28'0 0.0
2015-Mar-24 16:33N 53°54' E 011°28'0 0.0
2015-Mar-24 15:33N 53°54' E 011°28'1 1.2
2015-Mar-24 14:33N 53°55' E 011°26'7 7.1
2015-Mar-24 13:33N 54°02' E 011°24'11 7.6
2015-Mar-24 12:05N 54°13' E 011°28'4 8.1
2015-Mar-24 11:33N 54°16' E 011°32'9 9.0
2015-Mar-24 10:33N 54°21' E 011°45'9 9.0
2015-Mar-24 09:33N 54°26' E 011°58'8 7.1
2015-Mar-24 08:23N 54°29' E 012°11'8 8.2
2015-Mar-24 07:27N 54°36' E 012°15'9 8.2
2015-Mar-24 06:23N 54°41' E 012°28'24 8.1
2015-Mar-24 03:29N 54°46' E 013°07'8 9.0
2015-Mar-24 02:33N 54°46' E 013°22'9 9.0
2015-Mar-24 01:33N 54°46' E 013°37'9 8.9
2015-Mar-24 00:32N 54°43' E 013°52'10 9.0
2015-Mar-23 23:27N 54°40' E 014°09'147 8.6
2015-Mar-23 06:27N 54°56' E 018°22'8 9.0
2015-Mar-23 05:33N 54°53' E 018°35'9 8.9
2015-Mar-23 04:33N 54°51' E 018°50'9 8.9
2015-Mar-23 03:33N 54°48' E 019°05'9 8.7
2015-Mar-23 02:32N 54°46' E 019°19'11 0.5
2015-Mar-22 02:13N 54°42' E 019°38'6 8.2
2015-Mar-22 01:31N 54°44' E 019°29'16 8.2
2015-Mar-21 23:32N 54°57' E 019°12'6 5.9
2015-Mar-21 22:29N 55°01' E 019°04'12 6.0
2015-Mar-21 20:33N 54°59' E 018°44'7 5.8
2015-Mar-21 19:24N 54°58' E 018°33'140 8.7
2015-Mar-21 03:25N 54°11' E 014°46'910.2
2015-Mar-21 02:33N 54°07' E 014°33'1010.2
2015-Mar-21 01:33N 54°01' E 014°19'8 8.0
2015-Mar-21 00:33N 53°53' E 014°15'8 8.3
2015-Mar-20 23:33N 53°47' E 014°23'1010.3
2015-Mar-20 22:33N 53°38' E 014°34'1 0.0
2015-Mar-20 09:33N 53°38' E 014°34'1010.0
2015-Mar-20 08:33N 53°46' E 014°24'9 8.9
2015-Mar-20 07:34N 53°53' E 014°16'7 7.2
2015-Mar-20 06:34N 54°00' E 014°15'7 6.8
2015-Mar-20 05:34N 54°07' E 014°13'71 6.2
2015-Mar-19 18:15N 54°37' E 012°23'5 7.7
2015-Mar-19 17:33N 54°33' E 012°17'8 8.3
2015-Mar-19 16:34N 54°26' E 012°11'9 8.5
2015-Mar-19 15:33N 54°25' E 011°56'9 8.7
2015-Mar-19 14:33N 54°26' E 011°42'9 8.6
2015-Mar-19 13:33N 54°30' E 011°28'8 7.8
2015-Mar-19 12:34N 54°33' E 011°16'8 7.6
2015-Mar-19 11:33N 54°35' E 011°03'14 9.1
2015-Mar-19 10:04N 54°34' E 010°40'5 9.1
2015-Mar-19 09:33N 54°33' E 010°32'9 8.9
2015-Mar-19 08:33N 54°29' E 010°18'9 9.0
2015-Mar-19 07:33N 54°22' E 010°09'3 2.7
2015-Mar-19 06:33N 54°22' E 010°05'7 7.3
2015-Mar-19 05:33N 54°22' E 009°52'23 7.6
2015-Mar-19 02:29N 54°08' E 009°20'8 8.2
2015-Mar-19 01:33N 54°00' E 009°18'8 8.1
2015-Mar-19 00:34N 53°54' E 009°09'3 3.0
2015-Mar-18 23:33N 53°53' E 009°14'7 6.9
2015-Mar-18 22:33N 53°48' E 009°23'7 6.7
2015-Mar-18 21:32N 53°42' E 009°29'8 7.7
2015-Mar-18 20:33N 53°36' E 009°36'1110.8
2015-Mar-18 19:34N 53°33' E 009°53'5 5.3
2015-Mar-18 18:34N 53°28' E 009°58'0 0.0
2015-Mar-18 17:28N 53°28' E 009°58'0 0.0
2015-Mar-18 16:28N 53°28' E 009°58'0 0.0
2015-Mar-18 15:28N 53°28' E 009°58'0 0.0
2015-Mar-18 14:31N 53°28' E 009°58'0 0.0
2015-Mar-18 13:31N 53°28' E 009°58'0 0.0
2015-Mar-18 12:31N 53°28' E 009°58'0 0.0
2015-Mar-18 11:33N 53°28' E 009°58'4 4.3
2015-Mar-18 10:33N 53°32' E 009°56'1411.8
2015-Mar-18 09:24N 53°37' E 009°34'1011.9
2015-Mar-18 08:33N 53°45' E 009°24'1110.8
2015-Mar-18 07:33N 53°53' E 009°12'10 9.7
2015-Mar-18 06:33N 53°51' E 008°55'8 7.7
2015-Mar-18 05:33N 53°53' E 008°43'10 7.5
2015-Mar-18 04:16N 53°58' E 008°30'5 7.1
2015-Mar-18 03:32N 53°59' E 008°21'8 7.6
2015-Mar-18 02:32N 54°05' E 008°12'8 8.4
2015-Mar-18 01:33N 54°12' E 008°04'8 8.4
2015-Mar-18 00:33N 54°19' E 007°58'9 8.6
2015-Mar-17 23:33N 54°27' E 007°54'8 8.5
2015-Mar-17 22:33N 54°36' E 007°50'20 8.9
2015-Mar-17 20:16N 54°55' E 007°41'9 9.8
2015-Mar-17 19:19N 55°04' E 007°38'7 9.6
2015-Mar-17 18:32N 55°12' E 007°35'1010.0
2015-Mar-17 17:33N 55°21' E 007°31'11 9.6
2015-Mar-17 16:27N 55°31' E 007°26'52 8.7
2015-Mar-17 10:32N 56°22' E 007°39'9 9.0
2015-Mar-17 09:33N 56°31' E 007°44'9 9.3
2015-Mar-17 08:33N 56°40' E 007°50'9 9.4
2015-Mar-17 07:33N 56°48' E 007°56'9 9.3
2015-Mar-17 06:32N 56°57' E 008°02'  

Dump ship's entire track history